createdAt,value
2022-09-29T00:00:00.748Z,0
2022-09-29T00:01:00.725Z,0
2022-09-29T00:02:01.309Z,0
2022-09-29T00:03:01.083Z,0
2022-09-29T00:04:00.174Z,0
2022-09-29T00:05:00.693Z,0
2022-09-29T00:06:00.412Z,0
2022-09-29T00:07:00.643Z,0
2022-09-29T00:08:00.109Z,0
2022-09-29T00:09:00.590Z,0
2022-09-29T00:10:00.341Z,0
2022-09-29T00:11:00.336Z,0
2022-09-29T00:12:00.059Z,0
2022-09-29T00:13:00.015Z,0
2022-09-29T00:14:00.007Z,0
2022-09-29T00:14:59.995Z,0
2022-09-29T00:16:00.740Z,0
2022-09-29T00:17:00.463Z,0
2022-09-29T00:18:30.261Z,0
2022-09-29T00:18:59.930Z,0
2022-09-29T00:19:59.911Z,0
2022-09-29T00:20:59.919Z,0
2022-09-29T00:21:59.880Z,0
2022-09-29T00:23:00.111Z,0
2022-09-29T00:24:00.104Z,0
2022-09-29T00:25:00.091Z,0
2022-09-29T00:26:00.321Z,0
2022-09-29T00:26:59.791Z,0
2022-09-29T00:28:00.287Z,0
2022-09-29T00:29:00.019Z,0
2022-09-29T00:29:59.741Z,0
2022-09-29T00:30:59.466Z,0
2022-09-29T00:32:00.327Z,0
2022-09-29T00:33:00.204Z,0
2022-09-29T00:34:00.021Z,0
2022-09-29T00:34:59.671Z,0
2022-09-29T00:36:00.154Z,0
2022-09-29T00:37:00.166Z,0
2022-09-29T00:37:59.864Z,0
2022-09-29T00:38:59.862Z,0
2022-09-29T00:39:59.566Z,0
2022-09-29T00:41:00.199Z,0
2022-09-29T00:41:59.798Z,0
2022-09-29T00:42:59.270Z,0
2022-09-29T00:43:59.507Z,0
2022-09-29T00:44:59.500Z,0
2022-09-29T00:46:00.310Z,0
2022-09-29T00:46:59.718Z,0
2022-09-29T00:47:59.949Z,0
2022-09-29T00:48:59.943Z,0
2022-09-29T00:49:59.987Z,0
2022-09-29T00:50:59.911Z,0
2022-09-29T00:51:59.874Z,0
2022-09-29T00:52:59.897Z,0
2022-09-29T00:53:59.594Z,0
2022-09-29T00:54:59.572Z,0
2022-09-29T00:55:59.814Z,0
2022-09-29T00:56:59.548Z,0
2022-09-29T00:57:59.785Z,0
2022-09-29T00:58:59.312Z,0
2022-09-29T00:59:59.498Z,0
2022-09-29T01:00:59.321Z,0
2022-09-29T01:01:59.370Z,0
2022-09-29T01:02:59.187Z,0
2022-09-29T01:03:59.165Z,0
2022-09-29T01:04:59.166Z,0
2022-09-29T01:05:59.722Z,0
2022-09-29T01:06:59.126Z,0
2022-09-29T01:07:59.368Z,0
2022-09-29T01:08:59.634Z,0
2022-09-29T01:09:59.335Z,0
2022-09-29T01:10:59.320Z,0
2022-09-29T01:11:59.047Z,0
2022-09-29T01:12:59.275Z,0
2022-09-29T01:13:59.268Z,0
2022-09-29T01:14:59.252Z,0
2022-09-29T01:15:59.271Z,0
2022-09-29T01:16:59.210Z,0
2022-09-29T01:17:58.937Z,0
2022-09-29T01:18:59.188Z,0
2022-09-29T01:20:04.938Z,0
2022-09-29T01:20:59.393Z,0
2022-09-29T01:21:59.473Z,0
2022-09-29T01:22:59.531Z,0
2022-09-29T01:23:59.105Z,0
2022-09-29T01:24:59.107Z,0
2022-09-29T01:25:58.837Z,0
2022-09-29T01:26:58.543Z,0
2022-09-29T01:27:59.056Z,0
2022-09-29T01:28:59.011Z,0
2022-09-29T01:29:59.007Z,0
2022-09-29T01:30:58.736Z,0
2022-09-29T01:31:59.238Z,0
2022-09-29T01:32:58.954Z,0
2022-09-29T01:33:58.936Z,0
2022-09-29T01:35:30.792Z,0
2022-09-29T01:35:58.694Z,0
2022-09-29T01:36:58.379Z,0
2022-09-29T01:37:58.952Z,0
2022-09-29T01:38:58.873Z,0
2022-09-29T01:39:58.586Z,0
2022-09-29T01:40:59.416Z,0
2022-09-29T01:41:58.306Z,0
2022-09-29T01:42:58.802Z,0
2022-09-29T01:43:58.778Z,0
2022-09-29T01:44:58.763Z,0
2022-09-29T01:45:58.796Z,0
2022-09-29T01:46:58.746Z,0
2022-09-29T01:47:58.964Z,0
2022-09-29T01:48:58.446Z,0
2022-09-29T01:49:58.939Z,0
2022-09-29T01:50:58.432Z,0
2022-09-29T01:51:58.405Z,0
2022-09-29T01:52:58.893Z,0
2022-09-29T01:53:58.717Z,0
2022-09-29T01:54:58.872Z,0
2022-09-29T01:55:58.085Z,0
2022-09-29T01:56:58.603Z,0
2022-09-29T01:57:58.763Z,0
2022-09-29T01:58:58.503Z,0
2022-09-29T01:59:58.485Z,0
2022-09-29T02:00:59.114Z,0
2022-09-29T02:02:03.504Z,0
2022-09-29T02:02:58.188Z,0
2022-09-29T02:03:58.427Z,0
2022-09-29T02:04:58.658Z,0
2022-09-29T02:05:58.649Z,0
2022-09-29T02:06:58.379Z,0
2022-09-29T02:07:58.615Z,0
2022-09-29T02:08:58.609Z,0
2022-09-29T02:09:58.652Z,0
2022-09-29T02:10:58.572Z,0
2022-09-29T02:11:58.558Z,0
2022-09-29T02:12:58.358Z,0
2022-09-29T02:13:58.768Z,0
2022-09-29T02:14:58.007Z,0
2022-09-29T02:15:58.487Z,0
2022-09-29T02:16:58.744Z,0
2022-09-29T02:17:58.211Z,0
2022-09-29T02:19:02.884Z,0
2022-09-29T02:19:58.444Z,0
2022-09-29T02:20:57.915Z,0
2022-09-29T02:21:58.669Z,0
2022-09-29T02:22:58.127Z,0
2022-09-29T02:23:57.869Z,0
2022-09-29T02:24:58.360Z,0
2022-09-29T02:25:58.663Z,0
2022-09-29T02:26:58.584Z,0
2022-09-29T02:27:58.578Z,0
2022-09-29T02:28:58.573Z,0
2022-09-29T02:29:58.303Z,0
2022-09-29T02:30:58.016Z,0
2022-09-29T02:31:58.395Z,0
2022-09-29T02:32:57.994Z,0
2022-09-29T02:33:58.228Z,0
2022-09-29T02:34:57.952Z,0
2022-09-29T02:35:57.937Z,0
2022-09-29T02:36:57.927Z,0
2022-09-29T02:37:58.160Z,0
2022-09-29T02:38:58.155Z,0
2022-09-29T02:39:58.138Z,0
2022-09-29T02:40:57.937Z,0
2022-09-29T02:41:58.421Z,0
2022-09-29T02:42:58.087Z,0
2022-09-29T02:43:58.067Z,0
2022-09-29T02:44:58.079Z,0
2022-09-29T02:45:58.358Z,0
2022-09-29T02:46:58.021Z,0
2022-09-29T02:47:58.008Z,0
2022-09-29T02:48:57.996Z,0
2022-09-29T02:49:57.970Z,0
2022-09-29T02:50:58.215Z,0
2022-09-29T02:51:57.700Z,0
2022-09-29T02:52:57.936Z,0
2022-09-29T02:53:57.919Z,0
2022-09-29T02:54:57.648Z,0
2022-09-29T02:55:58.140Z,0
2022-09-29T02:56:57.631Z,0
2022-09-29T02:57:57.927Z,0
2022-09-29T02:58:58.112Z,0
2022-09-29T02:59:57.833Z,0
2022-09-29T03:00:58.390Z,0
2022-09-29T03:01:58.054Z,0
2022-09-29T03:02:57.772Z,0
2022-09-29T03:03:59.927Z,0
2022-09-29T03:04:57.500Z,0
2022-09-29T03:05:57.481Z,0
2022-09-29T03:06:57.724Z,0
2022-09-29T03:07:57.454Z,0
2022-09-29T03:08:57.181Z,0
2022-09-29T03:09:57.684Z,0
2022-09-29T03:10:57.654Z,0
2022-09-29T03:11:57.405Z,0
2022-09-29T03:12:57.376Z,0
2022-09-29T03:13:57.821Z,0
2022-09-29T03:14:57.595Z,0
2022-09-29T03:15:58.118Z,0
2022-09-29T03:16:57.595Z,0
2022-09-29T03:17:57.305Z,0
2022-09-29T03:18:57.537Z,0
2022-09-29T03:19:57.538Z,0
2022-09-29T03:20:57.266Z,0
2022-09-29T03:21:57.496Z,0
2022-09-29T03:22:57.474Z,0
2022-09-29T03:24:02.138Z,0
2022-09-29T03:24:57.465Z,0
2022-09-29T03:25:57.183Z,0
2022-09-29T03:26:57.416Z,0
2022-09-29T03:27:57.664Z,0
2022-09-29T03:28:57.655Z,0
2022-09-29T03:29:57.712Z,0
2022-09-29T03:30:57.606Z,0
2022-09-29T03:31:57.804Z,0
2022-09-29T03:32:57.089Z,0
2022-09-29T03:49:55.310Z,0
2022-09-29T03:50:55.104Z,0
2022-09-29T03:51:54.833Z,0
2022-09-29T03:52:54.534Z,0
2022-09-29T03:53:54.269Z,0
2022-09-29T03:54:54.776Z,0
2022-09-29T03:55:54.291Z,0
2022-09-29T03:56:54.810Z,0
2022-09-29T03:57:54.463Z,0
2022-09-29T03:58:57.067Z,0
2022-09-29T03:59:54.710Z,0
2022-09-29T04:00:55.026Z,0
2022-09-29T04:01:55.238Z,0
2022-09-29T04:02:54.881Z,0
2022-09-29T04:03:54.872Z,0
2022-09-29T04:04:54.342Z,0
2022-09-29T04:05:54.947Z,0
2022-09-29T04:06:54.825Z,0
2022-09-29T04:07:54.550Z,0
2022-09-29T04:08:54.793Z,0
2022-09-29T04:09:54.274Z,0
2022-09-29T04:10:54.497Z,0
2022-09-29T04:11:53.980Z,0
2022-09-29T04:12:54.472Z,0
2022-09-29T04:13:54.706Z,0
2022-09-29T04:14:54.696Z,0
2022-09-29T04:15:54.476Z,0
2022-09-29T04:16:54.782Z,0
2022-09-29T04:17:54.640Z,0
2022-09-29T04:18:54.627Z,0
2022-09-29T04:19:54.365Z,0
2022-09-29T04:20:54.603Z,0
2022-09-29T04:21:54.703Z,0
2022-09-29T04:22:54.304Z,0
2022-09-29T04:23:54.592Z,0
2022-09-29T04:24:54.555Z,0
2022-09-29T04:25:54.267Z,0
2022-09-29T04:26:53.741Z,0
2022-09-29T04:27:53.993Z,0
2022-09-29T04:28:54.484Z,0
2022-09-29T04:29:54.717Z,0
2022-09-29T04:30:54.966Z,0
2022-09-29T04:31:54.949Z,0
2022-09-29T04:32:54.682Z,0
2022-09-29T04:33:54.407Z,0
2022-09-29T04:34:54.145Z,0
2022-09-29T04:35:54.385Z,0
2022-09-29T04:36:54.881Z,0
2022-09-29T04:37:54.980Z,0
2022-09-29T04:38:54.078Z,0
2022-09-29T04:39:54.344Z,4
2022-09-29T04:40:54.675Z,4
2022-09-29T04:41:54.538Z,0
2022-09-29T04:42:54.271Z,4
2022-09-29T04:43:54.262Z,4
2022-09-29T04:44:54.509Z,4
2022-09-29T04:45:55.183Z,4
2022-09-29T04:46:54.719Z,8
2022-09-29T04:47:54.482Z,12
2022-09-29T04:48:54.190Z,8
2022-09-29T04:49:54.430Z,12
2022-09-29T04:50:54.147Z,16
2022-09-29T04:51:54.390Z,20
2022-09-29T04:52:54.374Z,20
2022-09-29T04:53:54.716Z,24
2022-09-29T04:54:54.605Z,28
2022-09-29T04:55:54.327Z,32
2022-09-29T04:56:54.579Z,40
2022-09-29T04:57:54.305Z,44
2022-09-29T04:58:54.034Z,52
2022-09-29T04:59:54.019Z,56
2022-09-29T05:00:54.842Z,64
2022-09-29T05:01:54.560Z,68
2022-09-29T05:02:56.876Z,80
2022-09-29T05:03:53.947Z,88
2022-09-29T05:04:53.948Z,100
2022-09-29T05:05:54.439Z,112
2022-09-29T05:06:54.158Z,124
2022-09-29T05:07:54.166Z,132
2022-09-29T05:08:54.151Z,148
2022-09-29T05:09:54.456Z,160
2022-09-29T05:10:54.105Z,168
2022-09-29T05:11:54.339Z,184
2022-09-29T05:12:53.570Z,196
2022-09-29T05:13:54.313Z,212
2022-09-29T05:14:54.040Z,228
2022-09-29T05:15:54.104Z,248
2022-09-29T05:16:54.142Z,268
2022-09-29T05:17:53.736Z,284
2022-09-29T05:18:53.978Z,300
2022-09-29T05:19:53.456Z,324
2022-09-29T05:21:33.841Z,352
2022-09-29T05:21:53.781Z,360
2022-09-29T05:22:53.670Z,376
2022-09-29T05:23:53.894Z,396
2022-09-29T05:24:53.894Z,416
2022-09-29T05:25:54.227Z,440
2022-09-29T05:26:59.903Z,480
2022-09-29T05:27:54.086Z,532
2022-09-29T05:28:53.855Z,596
2022-09-29T05:29:53.295Z,644
2022-09-29T05:30:54.056Z,648
2022-09-29T05:31:54.132Z,684
2022-09-29T05:32:59.379Z,736
2022-09-29T05:33:54.036Z,800
2022-09-29T05:34:53.980Z,896
2022-09-29T05:35:53.713Z,1012
2022-09-29T05:36:53.445Z,1136
2022-09-29T05:37:53.518Z,1240
2022-09-29T05:38:53.166Z,1300
2022-09-29T05:39:53.655Z,1372
2022-09-29T05:40:53.867Z,1392
2022-09-29T05:41:57.624Z,1300
2022-09-29T05:42:53.352Z,1320
2022-09-29T05:43:53.601Z,1256
2022-09-29T05:44:53.352Z,1220
2022-09-29T05:45:53.603Z,1208
2022-09-29T05:46:53.300Z,1228
2022-09-29T05:47:53.519Z,1268
2022-09-29T05:48:53.563Z,1308
2022-09-29T05:49:53.247Z,1360
2022-09-29T05:50:53.487Z,1432
2022-09-29T05:51:53.734Z,1512
2022-09-29T05:52:53.441Z,1564
2022-09-29T05:53:53.179Z,1580
2022-09-29T05:54:53.438Z,1676
2022-09-29T05:55:53.175Z,1732
2022-09-29T05:56:53.407Z,1792
2022-09-29T05:57:53.807Z,1852
2022-09-29T05:58:53.127Z,1900
2022-09-29T05:59:53.085Z,1960
2022-09-29T06:00:53.764Z,2076
2022-09-29T06:01:53.168Z,2180
2022-09-29T06:02:53.031Z,2276
2022-09-29T06:03:53.279Z,2356
2022-09-29T06:04:53.253Z,2436
2022-09-29T06:05:52.999Z,2484
2022-09-29T06:06:52.976Z,2508
2022-09-29T06:07:53.237Z,2560
2022-09-29T06:08:52.970Z,2604
2022-09-29T06:09:53.450Z,2616
2022-09-29T06:10:53.431Z,2648
2022-09-29T06:11:53.421Z,2688
2022-09-29T06:12:53.138Z,2716
2022-09-29T06:13:53.491Z,2744
2022-09-29T06:14:52.866Z,2760
2022-09-29T06:15:52.841Z,2792
2022-09-29T06:16:53.808Z,2852
2022-09-29T06:17:53.113Z,2960
2022-09-29T06:18:52.874Z,3052
2022-09-29T06:19:52.844Z,3140
2022-09-29T06:20:52.813Z,3200
2022-09-29T06:21:52.807Z,3264
2022-09-29T06:22:52.533Z,3352
2022-09-29T06:23:53.040Z,3416
2022-09-29T06:24:53.009Z,3432
2022-09-29T06:25:52.990Z,3448
2022-09-29T06:26:52.991Z,3388
2022-09-29T06:27:52.980Z,3348
2022-09-29T06:28:52.704Z,3320
2022-09-29T06:29:54.192Z,3308
2022-09-29T06:30:53.068Z,3364
2022-09-29T06:31:53.405Z,3400
2022-09-29T06:32:52.647Z,3452
2022-09-29T06:33:52.635Z,3540
2022-09-29T06:34:55.722Z,3624
2022-09-29T06:35:53.107Z,3736
2022-09-29T06:36:52.595Z,3892
2022-09-29T06:37:52.565Z,3976
2022-09-29T06:38:53.738Z,4024
2022-09-29T06:39:53.715Z,4024
2022-09-29T06:40:53.822Z,4052
2022-09-29T06:41:53.436Z,4060
2022-09-29T06:42:53.842Z,4096
2022-09-29T06:43:53.918Z,4156
2022-09-29T06:44:53.644Z,4240
2022-09-29T06:45:54.287Z,4328
2022-09-29T06:46:53.869Z,4440
2022-09-29T06:47:53.356Z,4524
2022-09-29T06:48:53.583Z,4616
2022-09-29T06:50:22.686Z,4664
2022-09-29T06:51:12.789Z,4768
2022-09-29T06:51:54.119Z,4824
2022-09-29T06:53:09.570Z,4920
2022-09-29T06:54:06.147Z,4972
2022-09-29T06:54:53.764Z,4968
2022-09-29T06:55:53.499Z,4960
2022-09-29T06:56:53.498Z,4948
2022-09-29T06:57:53.547Z,4924
2022-09-29T06:58:53.714Z,4892
2022-09-29T06:59:53.445Z,4932
2022-09-29T07:00:57.748Z,4980
2022-09-29T07:01:54.204Z,5056
2022-09-29T07:02:53.491Z,5208
2022-09-29T07:03:53.472Z,5256
2022-09-29T07:04:53.459Z,5176
2022-09-29T07:06:30.733Z,4884
2022-09-29T07:06:53.695Z,4808
2022-09-29T07:08:03.765Z,4556
2022-09-29T07:08:53.154Z,4424
2022-09-29T07:09:53.388Z,4340
2022-09-29T07:10:53.374Z,4300
2022-09-29T07:11:53.396Z,4336
2022-09-29T07:12:53.092Z,4316
2022-09-29T07:13:57.735Z,4320
2022-09-29T07:14:53.611Z,4220
2022-09-29T07:15:53.570Z,4068
2022-09-29T07:16:53.786Z,3864
2022-09-29T07:17:53.318Z,3700
2022-09-29T07:18:53.297Z,3600
2022-09-29T07:19:53.540Z,3472
2022-09-29T07:20:53.241Z,3428
2022-09-29T07:21:53.244Z,3360
2022-09-29T07:22:53.476Z,3320
2022-09-29T07:23:52.953Z,3160
2022-09-29T07:24:53.204Z,3060
2022-09-29T07:25:59.198Z,2840
2022-09-29T07:26:53.435Z,2824
2022-09-29T07:27:53.177Z,2764
2022-09-29T07:28:53.388Z,2780
2022-09-29T07:30:08.539Z,2744
2022-09-29T07:30:53.891Z,2716
2022-09-29T07:32:01.015Z,2624
2022-09-29T07:33:07.443Z,2492
2022-09-29T07:33:53.596Z,2376
2022-09-29T07:34:53.143Z,2272
2022-09-29T07:35:53.310Z,2224
2022-09-29T07:36:53.047Z,2204
2022-09-29T07:37:52.763Z,2188
2022-09-29T07:38:52.755Z,2160
2022-09-29T07:39:52.999Z,2144
2022-09-29T07:40:53.448Z,2140
2022-09-29T07:41:52.972Z,2148
2022-09-29T07:42:52.707Z,2156
2022-09-29T07:43:52.698Z,2152
2022-09-29T07:44:58.102Z,2148
2022-09-29T07:45:53.292Z,2152
2022-09-29T07:46:52.432Z,2136
2022-09-29T07:47:53.027Z,2124
2022-09-29T07:48:52.880Z,2124
2022-09-29T07:49:52.899Z,2128
2022-09-29T07:50:53.104Z,2144
2022-09-29T07:51:52.603Z,2152
2022-09-29T07:52:52.818Z,2168
2022-09-29T07:53:53.064Z,2172
2022-09-29T07:54:53.058Z,2184
2022-09-29T07:55:52.531Z,2192
2022-09-29T07:56:52.776Z,2196
2022-09-29T07:57:52.512Z,2212
2022-09-29T07:58:52.760Z,2228
2022-09-29T07:59:59.340Z,2236
2022-09-29T08:00:52.878Z,2260
2022-09-29T08:01:52.819Z,2244
2022-09-29T08:02:52.697Z,2180
2022-09-29T08:03:52.803Z,2128
2022-09-29T08:04:55.924Z,2404
2022-09-29T08:05:52.446Z,2488
2022-09-29T08:06:52.905Z,2424
2022-09-29T08:07:52.634Z,2532
2022-09-29T08:09:09.850Z,2504
2022-09-29T08:09:52.601Z,2356
2022-09-29T08:11:00.070Z,2492
2022-09-29T08:12:08.852Z,2988
2022-09-29T08:12:52.312Z,3116
2022-09-29T08:13:52.813Z,3692
2022-09-29T08:14:52.527Z,4248
2022-09-29T08:15:52.533Z,5048
2022-09-29T08:16:52.879Z,5500
2022-09-29T08:17:52.512Z,5900
2022-09-29T08:18:52.223Z,6632
2022-09-29T08:19:52.544Z,6808
2022-09-29T08:20:52.732Z,7352
2022-09-29T08:21:52.718Z,8144
2022-09-29T08:22:52.428Z,8656
2022-09-29T08:23:52.212Z,9024
2022-09-29T08:24:52.161Z,8880
2022-09-29T08:26:07.006Z,9032
2022-09-29T08:26:52.632Z,8876
2022-09-29T08:28:01.792Z,8380
2022-09-29T08:29:13.410Z,8520
2022-09-29T08:29:53.843Z,8920
2022-09-29T08:30:52.227Z,8816
2022-09-29T08:31:52.628Z,8180
2022-09-29T08:32:52.302Z,7932
2022-09-29T08:33:52.321Z,7884
2022-09-29T08:34:52.309Z,8088
2022-09-29T08:35:52.346Z,8036
2022-09-29T08:36:52.513Z,7304
2022-09-29T08:37:52.624Z,6664
2022-09-29T08:38:52.254Z,6224
2022-09-29T08:39:52.234Z,5784
2022-09-29T08:40:52.817Z,5468
2022-09-29T08:41:52.213Z,5212
2022-09-29T08:42:56.177Z,5284
2022-09-29T08:43:52.183Z,5656
2022-09-29T08:44:52.561Z,5580
2022-09-29T08:46:06.411Z,5692
2022-09-29T08:47:08.028Z,5600
2022-09-29T08:47:55.067Z,5532
2022-09-29T08:49:04.270Z,5456
2022-09-29T08:49:51.855Z,5620
2022-09-29T08:50:52.111Z,5860
2022-09-29T08:51:52.455Z,6064
2022-09-29T08:52:59.473Z,5976
2022-09-29T08:54:08.359Z,5992
2022-09-29T08:54:56.315Z,5988
2022-09-29T08:55:52.058Z,5960
2022-09-29T08:56:52.036Z,5780
2022-09-29T08:57:52.052Z,5364
2022-09-29T08:58:51.756Z,4992
2022-09-29T08:59:52.032Z,4940
2022-09-29T09:00:52.607Z,4804
2022-09-29T09:01:52.256Z,4508
2022-09-29T09:02:58.267Z,4524
2022-09-29T09:03:51.709Z,4520
2022-09-29T09:04:51.966Z,4392
2022-09-29T09:05:51.984Z,4156
2022-09-29T09:06:51.979Z,3920
2022-09-29T09:07:52.264Z,3820
2022-09-29T09:08:52.380Z,3880
2022-09-29T09:09:51.959Z,3904
2022-09-29T09:10:51.633Z,4084
2022-09-29T09:11:51.877Z,4084
2022-09-29T09:12:52.128Z,4228
2022-09-29T09:13:51.933Z,4448
2022-09-29T09:14:51.841Z,4592
2022-09-29T09:15:51.841Z,4600
2022-09-29T09:16:52.246Z,4684
2022-09-29T09:17:51.824Z,4644
2022-09-29T09:18:51.989Z,4732
2022-09-29T09:19:52.059Z,4736
2022-09-29T09:20:51.801Z,4940
2022-09-29T09:21:51.780Z,4968
2022-09-29T09:22:51.767Z,4940
2022-09-29T09:23:53.350Z,4784
2022-09-29T09:24:51.753Z,4632
2022-09-29T09:25:52.018Z,4548
2022-09-29T09:26:51.986Z,4652
2022-09-29T09:27:51.734Z,4984
2022-09-29T09:28:51.963Z,5452
2022-09-29T09:29:51.948Z,5716
2022-09-29T09:30:51.939Z,5712
2022-09-29T09:31:51.168Z,5888
2022-09-29T09:32:51.929Z,5864
2022-09-29T09:34:08.956Z,5692
2022-09-29T09:34:55.598Z,5628
2022-09-29T09:36:04.269Z,5664
2022-09-29T09:37:08.125Z,5760
2022-09-29T09:37:51.363Z,5808
2022-09-29T09:38:51.364Z,5968
2022-09-29T09:39:51.973Z,6348
2022-09-29T09:40:51.591Z,6676
2022-09-29T09:41:51.616Z,6744
2022-09-29T09:42:51.815Z,7120
2022-09-29T09:43:51.810Z,7968
2022-09-29T09:44:51.555Z,8868
2022-09-29T09:45:51.869Z,8424
2022-09-29T09:46:51.270Z,7940
2022-09-29T09:47:51.516Z,7724
2022-09-29T09:48:51.262Z,8200
2022-09-29T09:49:51.514Z,8544
2022-09-29T09:50:51.774Z,8512
2022-09-29T09:51:51.272Z,8864
2022-09-29T09:52:51.492Z,9196
2022-09-29T09:53:51.469Z,9040
2022-09-29T09:54:51.609Z,8956
2022-09-29T09:55:51.922Z,8644
2022-09-29T09:56:51.326Z,8380
2022-09-29T09:57:51.884Z,8172
2022-09-29T09:58:51.571Z,8096
2022-09-29T09:59:54.012Z,7904
2022-09-29T10:00:51.750Z,7652
2022-09-29T10:01:51.860Z,7592
2022-09-29T10:02:51.705Z,7460
2022-09-29T10:03:51.779Z,7008
2022-09-29T10:04:51.514Z,7012
2022-09-29T10:05:51.518Z,6676
2022-09-29T10:06:51.501Z,6164
2022-09-29T10:07:51.490Z,5820
2022-09-29T10:08:51.734Z,5876
2022-09-29T10:09:51.611Z,5888
2022-09-29T10:11:05.492Z,5760
2022-09-29T10:11:51.724Z,5632
2022-09-29T10:12:51.436Z,5420
2022-09-29T10:13:51.476Z,5188
2022-09-29T10:14:51.175Z,5196
2022-09-29T10:15:51.667Z,5196
2022-09-29T10:16:53.564Z,5224
2022-09-29T10:17:52.583Z,5304
2022-09-29T10:18:52.310Z,5140
2022-09-29T10:19:52.300Z,4832
2022-09-29T10:20:52.036Z,4496
2022-09-29T10:21:51.783Z,4360
2022-09-29T10:22:56.417Z,4212
2022-09-29T10:23:52.535Z,4228
2022-09-29T10:24:52.558Z,4216
2022-09-29T10:25:52.269Z,4440
2022-09-29T10:26:52.332Z,5140
2022-09-29T10:27:52.494Z,5892
2022-09-29T10:28:51.968Z,6084
2022-09-29T10:29:52.262Z,6068
2022-09-29T10:30:52.557Z,6080
2022-09-29T10:31:52.484Z,6468
2022-09-29T10:32:52.188Z,6732
2022-09-29T10:33:51.934Z,6852
2022-09-29T10:34:52.462Z,6648
2022-09-29T10:35:52.173Z,6608
2022-09-29T10:36:52.180Z,7012
2022-09-29T10:37:52.201Z,7180
2022-09-29T10:38:52.910Z,6616
2022-09-29T10:39:52.902Z,6400
2022-09-29T10:40:52.638Z,6500
2022-09-29T10:41:52.624Z,6684
2022-09-29T10:42:52.737Z,6908
2022-09-29T10:43:52.366Z,6988
2022-09-29T10:44:52.094Z,6968
2022-09-29T10:45:53.082Z,6828
2022-09-29T10:46:52.388Z,6664
2022-09-29T10:47:52.334Z,6552
2022-09-29T10:48:52.580Z,5948
2022-09-29T10:49:52.326Z,5640
2022-09-29T10:50:53.032Z,5220
2022-09-29T10:51:52.804Z,4708
2022-09-29T10:52:52.539Z,4528
2022-09-29T10:53:52.914Z,4228
2022-09-29T10:54:52.522Z,3916
2022-09-29T10:55:52.279Z,3908
2022-09-29T10:56:52.273Z,3924
2022-09-29T10:57:52.259Z,4120
2022-09-29T10:59:10.754Z,4368
2022-09-29T10:59:52.733Z,4544
2022-09-29T11:00:53.800Z,4824
2022-09-29T11:01:53.225Z,5248
2022-09-29T11:02:53.500Z,5928
2022-09-29T11:03:53.294Z,6076
2022-09-29T11:04:53.688Z,6256
2022-09-29T11:05:53.171Z,6324
2022-09-29T11:06:53.402Z,6292
2022-09-29T11:07:53.154Z,6436
2022-09-29T11:08:53.392Z,6616
2022-09-29T11:09:53.495Z,6612
2022-09-29T11:10:53.618Z,6652
2022-09-29T11:11:56.664Z,6760
2022-09-29T11:12:53.101Z,7112
2022-09-29T11:13:53.605Z,7392
2022-09-29T11:14:53.710Z,7452
2022-09-29T11:15:53.075Z,7388
2022-09-29T11:16:53.527Z,7192
2022-09-29T11:17:53.351Z,6932
2022-09-29T11:18:53.044Z,6748
2022-09-29T11:19:53.544Z,6628
2022-09-29T11:20:53.050Z,6492
2022-09-29T11:21:53.032Z,6376
2022-09-29T11:22:53.259Z,6244
2022-09-29T11:23:53.036Z,6140
2022-09-29T11:24:53.242Z,6124
2022-09-29T11:25:53.250Z,6152
2022-09-29T11:26:52.986Z,6184
2022-09-29T11:27:53.472Z,6344
2022-09-29T11:28:52.974Z,6660
2022-09-29T11:29:53.458Z,6816
2022-09-29T11:30:53.834Z,6808
2022-09-29T11:31:53.484Z,6688
2022-09-29T11:32:53.186Z,6500
2022-09-29T11:33:53.004Z,6344
2022-09-29T11:34:53.156Z,6280
2022-09-29T11:35:53.164Z,6320
2022-09-29T11:36:53.360Z,6348
2022-09-29T11:37:53.129Z,6336
2022-09-29T11:38:52.865Z,6336
2022-09-29T11:39:52.857Z,6292
2022-09-29T11:40:53.094Z,6328
2022-09-29T11:41:53.119Z,6448
2022-09-29T11:42:52.834Z,6580
2022-09-29T11:43:53.466Z,6736
2022-09-29T11:44:52.960Z,6752
2022-09-29T11:45:53.280Z,6756
2022-09-29T11:46:53.404Z,6544
2022-09-29T11:47:52.786Z,6000
2022-09-29T11:48:53.100Z,5488
2022-09-29T11:49:53.044Z,5548
2022-09-29T11:50:53.014Z,6084
2022-09-29T11:51:52.764Z,6616
2022-09-29T11:52:52.995Z,7024
2022-09-29T11:53:52.734Z,7300
2022-09-29T11:54:52.752Z,7384
2022-09-29T11:55:52.717Z,7288
2022-09-29T11:56:53.214Z,6936
2022-09-29T11:57:52.704Z,6612
2022-09-29T11:58:52.433Z,6432
2022-09-29T11:59:52.411Z,6180
2022-09-29T12:00:53.206Z,6048
2022-09-29T12:01:53.167Z,5804
2022-09-29T12:02:53.591Z,5372
2022-09-29T12:03:53.284Z,4988
2022-09-29T12:04:52.625Z,4900
2022-09-29T12:05:53.167Z,4872
2022-09-29T12:06:52.873Z,4804
2022-09-29T12:07:52.345Z,4940
2022-09-29T12:08:52.605Z,5076
2022-09-29T12:09:53.009Z,5136
2022-09-29T12:10:52.860Z,5308
2022-09-29T12:12:27.773Z,5488
2022-09-29T12:12:53.938Z,5508
2022-09-29T12:13:52.638Z,5656
2022-09-29T12:14:52.812Z,5792
2022-09-29T12:15:52.788Z,5892
2022-09-29T12:16:52.656Z,6060
2022-09-29T12:17:52.540Z,6404
2022-09-29T12:18:53.101Z,6824
2022-09-29T12:19:52.741Z,7008
2022-09-29T12:20:52.753Z,6972
2022-09-29T12:21:53.020Z,7036
2022-09-29T12:22:52.736Z,7140
2022-09-29T12:23:53.037Z,7032
2022-09-29T12:24:52.964Z,6984
2022-09-29T12:25:52.947Z,6968
2022-09-29T12:26:52.684Z,7244
2022-09-29T12:27:52.449Z,7456
2022-09-29T12:28:52.925Z,7528
2022-09-29T12:29:52.911Z,7560
2022-09-29T12:30:53.130Z,7540
2022-09-29T12:31:52.388Z,7388
2022-09-29T12:32:52.873Z,7200
2022-09-29T12:33:52.620Z,7180
2022-09-29T12:34:52.683Z,7088
2022-09-29T12:35:52.354Z,7228
2022-09-29T12:36:52.911Z,7124
2022-09-29T12:37:52.876Z,7284
2022-09-29T12:38:52.585Z,7296
2022-09-29T12:39:52.580Z,6964
2022-09-29T12:40:52.568Z,6508
2022-09-29T12:41:52.570Z,5824
2022-09-29T12:42:52.321Z,4988
2022-09-29T12:43:52.532Z,4516
2022-09-29T12:44:52.551Z,4016
2022-09-29T12:45:52.852Z,3568
2022-09-29T12:46:52.500Z,3416
2022-09-29T12:47:52.758Z,3468
2022-09-29T12:48:52.507Z,3436
2022-09-29T12:49:52.738Z,3368
2022-09-29T12:50:52.592Z,3428
2022-09-29T12:51:51.963Z,3448
2022-09-29T12:52:52.482Z,3496
2022-09-29T12:53:52.364Z,3580
2022-09-29T12:54:52.461Z,3632
2022-09-29T12:55:52.676Z,3616
2022-09-29T12:56:52.158Z,3600
2022-09-29T12:57:52.408Z,3532
2022-09-29T12:58:52.408Z,3460
2022-09-29T12:59:52.392Z,3448
2022-09-29T13:00:52.403Z,3592
2022-09-29T13:01:52.221Z,3892
2022-09-29T13:02:52.536Z,4260
2022-09-29T13:03:52.158Z,4396
2022-09-29T13:04:52.341Z,4256
2022-09-29T13:05:52.338Z,4024
2022-09-29T13:06:52.391Z,3720
2022-09-29T13:07:52.329Z,3528
2022-09-29T13:08:52.309Z,3348
2022-09-29T13:09:52.677Z,3200
2022-09-29T13:10:52.286Z,3088
2022-09-29T13:11:52.038Z,2924
2022-09-29T13:12:52.277Z,2708
2022-09-29T13:13:52.361Z,2520
2022-09-29T13:14:51.997Z,2388
2022-09-29T13:15:53.520Z,2300
2022-09-29T13:16:52.248Z,2296
2022-09-29T13:17:55.807Z,2292
2022-09-29T13:19:56.583Z,2404
2022-09-29T13:20:08.929Z,2456
2022-09-29T13:21:08.082Z,2680
2022-09-29T13:22:08.254Z,3024
2022-09-29T13:23:07.543Z,3432
2022-09-29T13:24:08.051Z,3804
2022-09-29T13:25:07.817Z,4044
2022-09-29T13:26:07.524Z,4192
2022-09-29T13:27:07.771Z,4108
2022-09-29T13:28:08.042Z,3916
2022-09-29T13:29:08.030Z,3700
2022-09-29T13:30:07.638Z,3492
2022-09-29T13:31:08.596Z,3280
2022-09-29T13:32:07.978Z,3216
2022-09-29T13:33:07.959Z,3136
2022-09-29T13:34:07.739Z,2960
2022-09-29T13:35:07.190Z,2760
2022-09-29T13:36:07.682Z,2604
2022-09-29T13:37:07.933Z,2512
2022-09-29T13:38:07.746Z,2324
2022-09-29T13:39:07.401Z,2348
2022-09-29T13:40:16.042Z,2328
2022-09-29T13:41:08.023Z,2332
2022-09-29T13:42:07.627Z,2336
2022-09-29T13:43:07.919Z,2368
2022-09-29T13:44:07.627Z,2444
2022-09-29T13:45:07.365Z,2552
2022-09-29T13:46:07.553Z,2616
2022-09-29T13:47:07.077Z,2596
2022-09-29T13:48:07.837Z,2604
2022-09-29T13:49:07.827Z,2624
2022-09-29T13:50:07.833Z,2624
2022-09-29T13:51:11.958Z,2672
2022-09-29T13:52:07.686Z,2864
2022-09-29T13:53:07.027Z,2904
2022-09-29T13:54:07.588Z,2932
2022-09-29T13:55:07.504Z,3156
2022-09-29T13:56:07.758Z,2996
2022-09-29T13:57:07.807Z,2856
2022-09-29T13:58:07.235Z,2792
2022-09-29T13:59:07.475Z,2900
2022-09-29T14:00:07.712Z,3140
2022-09-29T14:01:07.520Z,3380
2022-09-29T14:02:07.823Z,3676
2022-09-29T14:03:07.171Z,3808